Beaumont, Canada
Current Conditions -  °F | °C
As of 2:00 AM on Tuesday 21 Oct 2014 (Local Time) from CYQX Reporting Station
Few Clouds Few Clouds  
Wind Chill: 31°   Ceiling: Unl
Heat Index: 41°   Visibility: 20mi
Dew Point: 34°   Wind: 22mph
Humidity: 76%   Direction: 230°SW
Pressure: 29.59"   Gusts: 37mph
Location:  49.6°N, 55.68°W
Report Text: CYQX 210400Z 23019G32KT 20SM FEW030 05/01 A2959 RMK SC1 SLP025
Loading
Personal Weather Stations






























Interactive Weather Map
Tropical Storm Tracking
New forecast layout! Learn more

10-Day Weather Forecast

Advertisements
Track Severe Weather on mobile